Time;durP1;ratioP1;P1;durP2;ratioP2;P2;SDS_P1;SDS_P2;PMS_P1;PMS_P2;Temp;Humidity;BMP_temperature;BMP_pressure;BME280_temperature;BME280_humidity;BME280_pressure;Samples;Min_cycle;Max_cycle;Signal;HPM_P1;HPM_P2
2021/08/30 00:00:13;;;;;;;25.55;15.43;;;;;;;14.17;88.31;100660.03;8597906;34;20203;-72
2021/08/30 00:05:16;;;;;;;26.17;15.90;;;;;;;14.16;88.09;100667.28;8598369;34;20855;-71
2021/08/30 00:10:21;;;;;;;28.40;15.68;;;;;;;14.16;88.36;100667.28;8600297;34;20241;-72
2021/08/30 00:15:24;;;;;;;23.48;15.07;;;;;;;14.18;87.92;100671.69;8602812;34;20192;-72
2021/08/30 00:20:27;;;;;;;27.85;15.48;;;;;;;14.16;88.29;100670.00;8602741;34;20627;-72
2021/08/30 00:25:32;;;;;;;26.35;15.80;;;;;;;14.13;87.93;100672.97;8603195;34;20536;-71
2021/08/30 00:30:35;;;;;;;26.75;16.08;;;;;;;14.06;87.69;100670.97;8603340;34;20193;-72
2021/08/30 00:35:38;;;;;;;23.67;15.73;;;;;;;14.01;87.78;100673.22;8602628;34;20243;-72
2021/08/30 00:40:43;;;;;;;24.55;15.98;;;;;;;14.01;87.42;100665.13;8602856;34;20476;-72
2021/08/30 00:45:46;;;;;;;26.15;15.10;;;;;;;13.97;87.54;100675.38;8602241;34;20181;-71
2021/08/30 00:50:49;;;;;;;26.23;14.55;;;;;;;14.04;87.83;100683.75;8602583;34;20197;-71
2021/08/30 00:55:53;;;;;;;27.77;15.70;;;;;;;13.85;87.50;100676.47;8601879;34;20189;-71
2021/08/30 01:00:56;;;;;;;24.52;14.93;;;;;;;14.01;87.10;100675.94;8602276;34;20658;-71
2021/08/30 01:06:08;;;;;;;24.58;15.07;;;;;;;14.00;87.24;100679.63;8602155;34;20280;-71
2021/08/30 01:11:18;;;;;;;23.77;14.70;;;;;;;14.04;87.47;100686.47;8602758;34;20193;-71
2021/08/30 01:16:24;;;;;;;22.27;14.68;;;;;;;14.02;87.21;100688.47;8602878;34;20195;-71
2021/08/30 01:21:32;;;;;;;24.52;15.60;;;;;;;14.01;87.06;100684.03;8601919;34;20181;-70
2021/08/30 01:26:42;;;;;;;27.80;15.60;;;;;;;14.04;87.41;100694.56;8601056;34;20252;-71
2021/08/30 01:31:49;;;;;;;25.30;15.20;;;;;;;14.06;87.40;100695.28;8601494;34;20197;-71
2021/08/30 01:36:54;;;;;;;26.45;15.93;;;;;;;14.12;87.65;100701.00;8600920;34;20461;-71
2021/08/30 01:41:59;;;;;;;25.58;15.23;;;;;;;14.05;87.26;100694.44;8601168;34;20153;-70
2021/08/30 01:47:03;;;;;;;25.27;15.48;;;;;;;14.06;86.93;100693.44;8601142;34;20193;-71
2021/08/30 01:52:07;;;;;;;26.65;16.13;;;;;;;13.91;87.23;100684.88;8601161;34;20251;-71
2021/08/30 01:57:12;;;;;;;25.17;15.73;;;;;;;13.93;86.61;100687.44;8600313;34;20181;-71
2021/08/30 02:02:16;;;;;;;27.52;16.23;;;;;;;13.88;86.67;100693.25;8600542;34;20185;-71
2021/08/30 02:07:23;;;;;;;22.80;14.68;;;;;;;13.98;86.87;100692.41;8601040;34;20280;-71
2021/08/30 02:12:26;;;;;;;25.50;16.35;;;;;;;14.00;87.56;100695.84;8600345;34;20347;-71
2021/08/30 02:17:33;;;;;;;28.88;17.25;;;;;;;13.98;87.36;100695.13;8600575;34;20440;-70
2021/08/30 02:22:43;;;;;;;26.98;16.83;;;;;;;13.92;87.17;100696.53;8600227;34;20181;-71
2021/08/30 02:27:50;;;;;;;25.25;15.45;;;;;;;13.98;87.53;100690.56;8599660;34;20864;-71
2021/08/30 02:32:56;;;;;;;26.38;16.25;;;;;;;13.96;87.50;100691.69;8599459;34;20852;-71
2021/08/30 02:38:02;;;;;;;24.38;14.93;;;;;;;13.98;87.85;100687.88;8599629;34;20203;-71
2021/08/30 02:43:06;;;;;;;26.48;15.95;;;;;;;13.96;87.40;100687.19;8599591;34;20150;-71
2021/08/30 02:48:10;;;;;;;24.90;15.50;;;;;;;13.95;87.64;100682.75;8599610;34;20189;-71
2021/08/30 02:53:15;;;;;;;27.20;16.67;;;;;;;13.93;87.56;100685.59;8599407;34;20521;-71
2021/08/30 02:58:18;;;;;;;28.13;17.38;;;;;;;13.93;87.65;100679.31;8599055;34;20192;-71
2021/08/30 03:03:22;;;;;;;29.75;16.50;;;;;;;13.96;87.92;100680.91;8599888;34;20357;-71
2021/08/30 03:08:26;;;;;;;31.15;18.40;;;;;;;13.93;87.70;100680.22;8599065;34;20196;-71
2021/08/30 03:13:30;;;;;;;30.77;18.13;;;;;;;13.97;87.69;100674.53;8575158;34;20998;-71
2021/08/30 03:18:35;;;;;;;33.70;18.73;;;;;;;14.00;87.67;100675.09;8598549;34;20149;-71
2021/08/30 03:23:42;;;;;;;33.65;19.05;;;;;;;14.02;87.74;100683.06;8598700;34;20185;-71
2021/08/30 03:28:45;;;;;;;34.10;18.88;;;;;;;14.02;87.53;100669.56;8598784;34;20191;-71
2021/08/30 03:33:50;;;;;;;33.00;19.33;;;;;;;14.03;87.53;100679.34;8598556;34;20208;-71
2021/08/30 03:38:55;;;;;;;35.45;20.17;;;;;;;14.03;87.60;100673.94;8598077;34;20919;-71
2021/08/30 03:44:00;;;;;;;35.30;19.27;;;;;;;14.02;87.72;100683.06;8599852;34;20184;-71
2021/08/30 03:49:04;;;;;;;35.95;19.98;;;;;;;14.01;87.76;100665.97;8604397;34;20186;-71
2021/08/30 03:54:11;;;;;;;33.40;21.02;;;;;;;14.03;87.77;100682.06;8603689;34;20453;-71
2021/08/30 03:59:16;;;;;;;36.65;20.45;;;;;;;14.06;87.75;100684.47;8603345;34;20181;-71
2021/08/30 04:04:22;;;;;;;32.35;19.98;;;;;;;14.08;87.76;100679.78;8603245;34;20458;-71
2021/08/30 04:09:28;;;;;;;33.63;20.33;;;;;;;14.00;87.81;100685.88;8603887;34;20729;-71
2021/08/30 04:14:31;;;;;;;35.55;20.33;;;;;;;14.03;87.92;100688.31;8602899;34;20186;-71
2021/08/30 04:19:35;;;;;;;34.38;21.30;;;;;;;14.03;88.42;100682.91;8602919;34;20138;-70
2021/08/30 04:24:39;;;;;;;35.20;20.58;;;;;;;14.01;88.15;100690.28;8602904;34;20575;-71
2021/08/30 04:29:43;;;;;;;38.85;22.70;;;;;;;14.03;88.25;100684.75;8603051;34;20674;-71
2021/08/30 04:34:46;;;;;;;32.45;21.15;;;;;;;14.04;88.29;100697.25;8603968;34;20408;-70
2021/08/30 04:39:50;;;;;;;39.13;21.67;;;;;;;14.05;87.78;100699.00;8603954;34;20185;-70
2021/08/30 04:44:53;;;;;;;39.15;22.02;;;;;;;14.08;88.38;100702.25;8603905;34;20227;-70
2021/08/30 04:49:56;;;;;;;38.80;23.27;;;;;;;14.07;88.32;100699.69;8603596;34;20282;-70
2021/08/30 04:55:01;;;;;;;40.72;23.73;;;;;;;14.08;88.37;100698.69;8602512;34;20237;-70
2021/08/30 05:00:07;;;;;;;42.00;24.02;;;;;;;14.07;88.25;100707.78;8603115;34;20189;-71
2021/08/30 05:05:11;;;;;;;42.53;24.33;;;;;;;14.10;88.16;100713.78;8603313;34;21024;-71
2021/08/30 05:10:16;;;;;;;38.38;22.25;;;;;;;14.11;88.29;100711.94;8579246;34;20272;-71
2021/08/30 05:15:19;;;;;;;39.22;22.63;;;;;;;14.14;88.42;100717.91;8602470;34;20189;-70
2021/08/30 05:20:22;;;;;;;37.00;23.20;;;;;;;14.20;88.19;100707.53;8603475;34;20195;-71
2021/08/30 05:25:27;;;;;;;38.95;23.08;;;;;;;14.25;87.80;100713.38;8601739;34;20279;-71
2021/08/30 05:30:30;;;;;;;37.65;22.83;;;;;;;14.40;87.96;100722.81;8602043;34;20246;-71
2021/08/30 05:35:33;;;;;;;41.75;23.70;;;;;;;14.41;87.63;100724.50;8603713;34;20187;-71
2021/08/30 05:40:37;;;;;;;34.53;20.52;;;;;;;14.45;87.31;100733.19;8602483;34;20717;-71
2021/08/30 05:45:40;;;;;;;39.28;21.88;;;;;;;14.53;86.99;100738.75;8602009;34;20469;-71
2021/08/30 05:50:43;;;;;;;38.85;22.13;;;;;;;14.41;86.63;100740.72;8602060;34;20682;-71
2021/08/30 05:55:48;;;;;;;29.27;17.25;;;;;;;14.45;86.79;100738.59;8602162;34;20149;-71
2021/08/30 06:00:51;;;;;;;36.72;19.60;;;;;;;14.45;86.39;100742.13;8602121;34;20258;-71
2021/08/30 06:05:54;;;;;;;32.63;20.08;;;;;;;14.50;85.98;100726.34;8601660;34;20200;-71
2021/08/30 06:11:00;;;;;;;25.65;16.13;;;;;;;14.53;85.82;100738.75;8601942;34;20192;-71
2021/08/30 06:16:03;;;;;;;33.38;19.83;;;;;;;14.58;85.87;100740.03;8601604;34;20283;-72
2021/08/30 06:21:06;;;;;;;31.02;19.80;;;;;;;14.63;85.54;100726.09;8602103;34;20910;-71
2021/08/30 06:26:11;;;;;;;28.00;18.42;;;;;;;14.79;85.66;100730.94;8601393;34;20146;-71
2021/08/30 06:31:14;;;;;;;36.35;19.73;;;;;;;14.89;85.95;100733.59;8601103;34;20185;-72
2021/08/30 06:36:17;;;;;;;32.33;19.17;;;;;;;15.02;85.97;100737.72;8602019;34;20189;-72
2021/08/30 06:41:23;;;;;;;28.70;17.95;;;;;;;15.20;85.69;100750.53;8602647;34;20760;-71
2021/08/30 06:46:26;;;;;;;29.63;18.58;;;;;;;15.25;84.11;100743.66;8602174;34;20192;-71
2021/08/30 06:51:29;;;;;;;32.42;19.40;;;;;;;15.47;82.83;100747.91;8602660;34;20256;-71
2021/08/30 06:56:33;;;;;;;28.13;18.40;;;;;;;15.48;82.67;100738.78;8601535;34;20181;-71
2021/08/30 07:01:36;;;;;;;32.50;18.38;;;;;;;15.37;83.06;100738.09;8602617;34;20152;-71
2021/08/30 07:06:40;;;;;;;28.33;17.90;;;;;;;15.18;82.35;100741.69;8601270;34;20157;-72
2021/08/30 07:11:45;;;;;;;28.67;16.58;;;;;;;15.45;82.90;100736.38;8602198;34;20154;-71
2021/08/30 07:16:48;;;;;;;28.17;18.38;;;;;;;15.64;81.82;100738.16;8599791;34;20181;-71
2021/08/30 07:21:51;;;;;;;30.65;18.00;;;;;;;15.67;82.04;100742.41;8605379;34;20212;-71
2021/08/30 07:26:55;;;;;;;28.50;17.83;;;;;;;15.61;81.45;100738.47;8605418;34;21073;-71
2021/08/30 07:31:58;;;;;;;28.50;17.35;;;;;;;15.67;81.48;100742.41;8605807;34;20746;-71
2021/08/30 07:37:02;;;;;;;27.75;17.35;;;;;;;15.89;81.22;100744.72;8605204;34;20520;-71
2021/08/30 07:42:06;;;;;;;26.48;16.67;;;;;;;16.05;80.59;100744.09;8605111;34;20189;-71
2021/08/30 07:47:09;;;;;;;26.67;16.77;;;;;;;16.21;79.13;100745.25;8604588;34;20227;-71
2021/08/30 07:52:12;;;;;;;23.08;15.32;;;;;;;16.66;79.73;100756.09;8604381;34;20142;-71
2021/08/30 07:57:17;;;;;;;21.42;15.57;;;;;;;16.88;76.58;100746.63;8604645;34;20288;-71
2021/08/30 08:02:20;;;;;;;20.42;15.02;;;;;;;16.86;75.09;100759.50;8604674;34;20270;-71
2021/08/30 08:07:24;;;;;;;21.95;16.02;;;;;;;17.22;74.76;100765.78;8606039;34;21622;-73
2021/08/30 08:12:28;;;;;;;22.67;14.20;;;;;;;17.31;74.47;100773.97;8606721;34;20189;-72
2021/08/30 08:17:31;;;;;;;23.45;14.15;;;;;;;16.84;73.84;100783.25;8606049;34;20185;-71
2021/08/30 08:22:35;;;;;;;22.50;14.38;;;;;;;16.53;75.09;100780.88;8605500;34;20275;-71
2021/08/30 08:27:40;;;;;;;21.38;14.45;;;;;;;16.56;75.78;100782.44;8606344;34;20900;-72
2021/08/30 08:32:43;;;;;;;19.90;14.45;;;;;;;16.77;74.74;100784.88;8606637;34;20618;-72
2021/08/30 08:37:46;;;;;;;18.25;13.45;;;;;;;17.04;72.61;100783.91;8608087;34;20652;-72
2021/08/30 08:42:50;;;;;;;24.98;13.95;;;;;;;16.91;72.91;100789.72;8606496;34;20193;-71
2021/08/30 08:47:54;;;;;;;20.25;14.10;;;;;;;17.11;73.52;100781.41;8606469;34;20264;-70
2021/08/30 08:52:58;;;;;;;17.95;13.18;;;;;;;17.04;73.25;100792.06;8606930;34;20150;-71
2021/08/30 08:58:08;;;;;;;19.23;12.82;;;;;;;16.88;73.60;100787.34;8604896;34;21719;-71
2021/08/30 09:03:16;;;;;;;18.98;13.68;;;;;;;17.11;73.39;100782.25;8606825;34;20153;-71
2021/08/30 09:08:29;;;;;;;16.92;12.32;;;;;;;17.43;71.79;100781.69;8603932;34;20739;-72
2021/08/30 09:13:33;;;;;;;19.00;12.77;;;;;;;17.38;71.75;100784.03;8576923;34;20279;-71
2021/08/30 09:18:36;;;;;;;16.63;12.63;;;;;;;17.82;70.95;100781.22;8599620;34;20201;-72
2021/08/30 09:23:41;;;;;;;14.20;11.73;;;;;;;18.46;69.02;100781.69;8601428;34;20168;-71
2021/08/30 09:28:52;;;;;;;15.10;11.57;;;;;;;18.82;66.63;100780.59;8600923;34;20185;-72
2021/08/30 09:33:55;;;;;;;15.10;10.90;;;;;;;18.60;67.10;100779.34;8598012;34;20687;-72
2021/08/30 09:39:01;;;;;;;18.15;11.93;;;;;;;18.62;67.80;100783.56;8602305;34;20185;-72
2021/08/30 09:44:07;;;;;;;14.57;10.45;;;;;;;19.13;67.30;100776.16;8602246;34;20189;-72
2021/08/30 09:49:10;;;;;;;15.98;11.18;;;;;;;19.46;63.83;100776.13;8602606;34;20157;-72
2021/08/30 09:54:18;;;;;;;14.98;10.32;;;;;;;19.38;63.01;100774.25;8603029;34;20263;-72
2021/08/30 09:59:22;;;;;;;13.75;9.38;;;;;;;18.90;62.25;100776.00;8578516;34;20236;-71
2021/08/30 10:04:27;;;;;;;13.02;9.38;;;;;;;18.91;62.83;100776.84;8601544;34;20196;-71
2021/08/30 10:09:31;;;;;;;12.13;9.70;;;;;;;19.49;61.10;100767.59;8601806;34;21031;-71
2021/08/30 10:14:36;;;;;;;13.77;10.02;;;;;;;19.30;62.04;100774.25;8601811;34;20472;-72
2021/08/30 10:19:40;;;;;;;10.35;8.48;;;;;;;19.40;62.00;100772.22;8601625;34;20197;-72
2021/08/30 10:24:43;;;;;;;22.60;11.13;;;;;;;19.30;62.17;100767.97;8577696;34;20279;-72
2021/08/30 10:29:48;;;;;;;12.63;9.60;;;;;;;19.35;62.64;100763.72;8601634;34;20596;-71
2021/08/30 10:34:54;;;;;;;14.20;10.35;;;;;;;18.88;63.20;100775.31;8600847;34;20193;-72
2021/08/30 10:39:57;;;;;;;13.70;9.82;;;;;;;18.76;63.75;100771.19;8600842;34;21260;-72
2021/08/30 10:45:06;;;;;;;11.63;9.20;;;;;;;18.65;63.92;100766.94;8601230;34;20189;-72
2021/08/30 10:50:24;;;;;;;14.88;9.05;;;;;;;19.04;63.43;100769.03;8600975;34;20193;-71
2021/08/30 10:55:38;;;;;;;12.88;9.30;;;;;;;18.79;63.15;100771.72;8599487;34;20250;-72
2021/08/30 11:00:43;;;;;;;12.38;9.27;;;;;;;19.32;62.19;100765.94;8596727;34;20161;-71
2021/08/30 11:05:48;;;;;;;10.73;8.52;;;;;;;20.28;59.52;100762.22;8592995;34;20189;-72
2021/08/30 11:10:51;;;;;;;11.50;8.57;;;;;;;20.56;57.49;100771.63;8594859;34;20153;-71
2021/08/30 11:15:55;;;;;;;11.20;8.23;;;;;;;20.59;57.02;100764.94;8595249;34;20161;-71
2021/08/30 11:20:58;;;;;;;11.57;8.60;;;;;;;20.87;57.03;100762.53;8597508;34;20332;-72
2021/08/30 11:26:05;;;;;;;12.80;8.32;;;;;;;20.54;57.67;100760.06;8594084;34;20255;-72
2021/08/30 11:31:09;;;;;;;10.93;8.27;;;;;;;20.40;58.31;100754.50;8595455;34;20191;-72
2021/08/30 11:36:12;;;;;;;10.52;7.47;;;;;;;20.15;59.17;100762.78;8597971;34;20455;-72
2021/08/30 11:41:15;;;;;;;10.07;7.60;;;;;;;20.76;57.15;100754.75;8593361;34;21062;-72
2021/08/30 11:46:19;;;;;;;10.40;7.68;;;;;;;21.22;55.80;100762.94;8593542;34;20599;-72
2021/08/30 11:51:25;;;;;;;10.20;7.78;;;;;;;21.83;54.30;100749.16;8591640;34;20150;-72
2021/08/30 11:56:35;;;;;;;9.40;7.57;;;;;;;21.80;53.94;100742.22;8593308;34;20529;-72
2021/08/30 12:01:40;;;;;;;11.55;7.50;;;;;;;20.18;57.07;100756.97;8592063;34;20177;-72
2021/08/30 12:06:56;;;;;;;9.63;7.43;;;;;;;19.31;59.67;100745.16;8597072;34;20492;-72
2021/08/30 12:11:59;;;;;;;9.55;7.22;;;;;;;19.65;58.60;100753.97;8600804;34;20518;-71
2021/08/30 12:17:04;;;;;;;10.98;8.30;;;;;;;20.74;57.89;100756.84;8597724;34;20440;-71
2021/08/30 12:22:08;;;;;;;9.27;6.90;;;;;;;21.54;53.42;100756.31;8599183;34;20181;-71
2021/08/30 12:27:11;;;;;;;7.82;6.40;;;;;;;20.86;55.33;100759.97;8599644;34;20250;-72
2021/08/30 12:32:15;;;;;;;9.23;6.93;;;;;;;19.84;57.46;100768.22;8600417;34;20705;-71
2021/08/30 12:37:18;;;;;;;10.48;7.05;;;;;;;19.38;58.15;100762.50;8599207;34;21510;-71
2021/08/30 12:42:21;;;;;;;9.77;7.07;;;;;;;19.85;58.13;100761.72;8599725;34;20672;-71
2021/08/30 12:47:25;;;;;;;8.82;7.22;;;;;;;20.50;56.92;100769.63;8597055;34;20795;-71
2021/08/30 12:52:29;;;;;;;15.07;7.60;;;;;;;20.32;56.87;100752.66;8594643;34;20169;-71
2021/08/30 12:57:33;;;;;;;9.45;7.10;;;;;;;20.13;58.20;100764.88;8595259;34;20469;-71
2021/08/30 13:02:38;;;;;;;9.35;6.78;;;;;;;20.54;56.42;100759.19;8599173;34;20191;-71
2021/08/30 13:07:43;;;;;;;10.23;7.25;;;;;;;20.78;56.14;100758.16;8603597;34;20204;-71
2021/08/30 13:12:47;;;;;;;10.68;7.28;;;;;;;22.50;54.40;100753.59;8603639;34;20243;-71
2021/08/30 13:17:52;;;;;;;8.18;6.15;;;;;;;24.70;46.04;100748.50;8602483;34;20185;-71
2021/08/30 13:22:55;;;;;;;10.02;6.43;;;;;;;23.95;47.42;100749.50;8603411;34;20240;-71
2021/08/30 13:27:58;;;;;;;7.18;6.20;;;;;;;23.38;48.74;100743.22;8603017;34;20161;-71
2021/08/30 13:33:04;;;;;;;7.20;5.97;;;;;;;21.44;52.76;100751.09;8603111;34;20251;-71
2021/08/30 13:38:07;;;;;;;7.75;6.25;;;;;;;20.26;56.01;100764.28;8603114;34;20561;-71
2021/08/30 13:43:10;;;;;;;7.68;6.18;;;;;;;19.85;57.20;100751.66;8602993;34;20558;-71
2021/08/30 13:48:14;;;;;;;8.82;6.85;;;;;;;20.34;57.35;100756.06;8602991;34;20473;-71
2021/08/30 13:53:17;;;;;;;7.57;6.75;;;;;;;21.31;53.65;100748.19;8601595;34;20216;-71
2021/08/30 13:58:20;;;;;;;11.65;7.32;;;;;;;21.31;53.06;100750.03;8599887;34;20911;-71
2021/08/30 14:03:29;;;;;;;8.52;6.10;;;;;;;21.33;53.50;100758.91;8596926;34;20364;-70
2021/08/30 14:08:32;;;;;;;7.90;6.40;;;;;;;21.43;53.83;100759.50;8594196;34;20262;-71
2021/08/30 14:13:50;;;;;;;9.10;6.45;;;;;;;21.79;52.71;100753.31;8594153;34;21251;-71
2021/08/30 14:19:14;;;;;;;9.50;7.15;;;;;;;22.50;51.33;100753.59;8593458;34;20185;-72
2021/08/30 14:24:17;;;;;;;9.77;5.93;;;;;;;21.44;53.81;100756.56;8593705;34;20193;-72
2021/08/30 14:29:20;;;;;;;6.78;5.72;;;;;;;20.62;56.23;100756.41;8592991;34;20203;-73
2021/08/30 14:34:25;;;;;;;9.35;6.78;;;;;;;21.30;56.19;100749.19;8593753;34;20172;-72
2021/08/30 14:39:28;;;;;;;10.65;7.28;;;;;;;21.13;55.01;100751.25;8594104;34;20965;-72
2021/08/30 14:44:31;;;;;;;8.50;6.75;;;;;;;20.57;56.81;100761.56;8593951;34;20857;-72
2021/08/30 14:49:35;;;;;;;8.45;7.07;;;;;;;20.24;58.66;100769.03;8594745;34;20193;-72
2021/08/30 14:54:38;;;;;;;9.55;6.63;;;;;;;20.33;57.00;100771.59;8599018;34;20189;-72
2021/08/30 14:59:41;;;;;;;8.73;6.40;;;;;;;20.94;55.65;100765.38;8597212;34;20605;-72
2021/08/30 15:04:46;;;;;;;15.52;6.05;;;;;;;22.02;52.95;100759.53;8595300;34;20246;-72
2021/08/30 15:09:49;;;;;;;7.95;5.88;;;;;;;21.93;51.18;100751.59;8597102;34;20215;-71
2021/08/30 15:14:52;;;;;;;8.32;5.90;;;;;;;20.65;54.62;100766.09;8598415;34;20193;-71
2021/08/30 15:19:56;;;;;;;7.95;6.25;;;;;;;19.95;56.56;100776.00;8602825;34;20528;-72
2021/08/30 15:25:00;;;;;;;7.03;6.07;;;;;;;20.06;57.33;100775.63;8602625;34;21701;-71
2021/08/30 15:30:04;;;;;;;8.32;6.07;;;;;;;20.22;56.87;100773.84;8603050;34;20196;-71
2021/08/30 15:35:10;;;;;;;9.82;6.80;;;;;;;20.64;56.44;100770.72;8600804;34;20663;-71
2021/08/30 15:40:13;;;;;;;8.95;5.80;;;;;;;20.95;54.04;100769.78;8603920;34;20197;-71
2021/08/30 15:45:16;;;;;;;10.20;5.70;;;;;;;20.03;55.49;100777.84;8605742;34;20189;-71
2021/08/30 15:50:23;;;;;;;8.38;5.72;;;;;;;19.45;57.56;100778.00;8606904;34;20256;-71
2021/08/30 15:55:26;;;;;;;6.72;5.70;;;;;;;19.03;58.87;100778.19;8605683;34;20283;-71
2021/08/30 16:00:29;;;;;;;8.48;5.50;;;;;;;18.90;59.83;100781.44;8605345;34;20241;-71
2021/08/30 16:05:35;;;;;;;8.25;5.70;;;;;;;19.52;58.67;100775.41;8606146;34;20288;-71
2021/08/30 16:10:38;;;;;;;7.28;5.80;;;;;;;19.52;58.65;100778.13;8606962;34;20185;-72
2021/08/30 16:15:41;;;;;;;7.85;5.78;;;;;;;19.10;59.31;100773.78;8606446;34;20189;-72
2021/08/30 16:20:45;;;;;;;7.82;5.65;;;;;;;19.23;58.58;100776.84;8605918;34;20251;-71
2021/08/30 16:25:49;;;;;;;7.32;4.80;;;;;;;19.92;56.14;100787.28;8605638;34;20219;-72
2021/08/30 16:30:52;;;;;;;6.55;4.60;;;;;;;19.95;54.41;100783.34;8605628;34;20192;-72
2021/08/30 16:35:56;;;;;;;5.93;5.05;;;;;;;19.20;56.15;100798.13;8606412;34;20258;-71
2021/08/30 16:40:59;;;;;;;7.38;4.88;;;;;;;19.53;55.40;100798.06;8606533;34;20385;-70
2021/08/30 16:46:03;;;;;;;5.80;4.70;;;;;;;19.30;56.15;100795.19;8605355;34;20322;-72
2021/08/30 16:51:07;;;;;;;7.80;4.82;;;;;;;18.93;57.51;100791.13;8605110;34;20247;-72
2021/08/30 16:56:10;;;;;;;6.18;4.45;;;;;;;19.15;58.10;100793.19;8605686;34;20359;-72
2021/08/30 17:01:13;;;;;;;8.05;5.53;;;;;;;19.46;57.15;100797.91;8605851;34;20608;-72
2021/08/30 17:06:18;;;;;;;8.55;4.88;;;;;;;19.14;57.82;100804.22;8605358;34;20193;-72
2021/08/30 17:11:21;;;;;;;7.65;5.35;;;;;;;18.90;58.50;100800.50;8606143;34;20156;-71
2021/08/30 17:16:24;;;;;;;9.77;5.35;;;;;;;18.84;58.96;100813.91;8605401;34;20239;-72
2021/08/30 17:21:31;;;;;;;7.38;5.32;;;;;;;18.60;59.68;100817.44;8604373;34;20193;-71
2021/08/30 17:26:37;;;;;;;8.43;5.40;;;;;;;18.43;60.34;100824.66;8580017;34;20287;-71
2021/08/30 17:31:41;;;;;;;8.55;6.32;;;;;;;18.43;60.52;100819.22;8602660;34;20545;-72
2021/08/30 17:36:48;;;;;;;6.88;5.63;;;;;;;18.19;60.88;100820.84;8601049;34;20942;-72
2021/08/30 17:41:51;;;;;;;8.60;5.93;;;;;;;18.05;61.14;100827.75;8600922;34;20532;-72
2021/08/30 17:46:54;;;;;;;5.82;5.13;;;;;;;17.89;61.86;100827.66;8602954;34;20492;-72
2021/08/30 17:51:59;;;;;;;7.45;5.75;;;;;;;17.63;62.57;100831.22;8601151;34;21716;-71
2021/08/30 17:57:02;;;;;;;7.20;5.95;;;;;;;17.46;63.35;100834.84;8601982;34;20192;-71
2021/08/30 18:02:05;;;;;;;6.65;5.85;;;;;;;17.34;64.10;100845.09;8603782;34;20189;-71
2021/08/30 18:07:10;;;;;;;7.45;6.20;;;;;;;17.24;64.39;100847.91;8604485;34;20709;-72
2021/08/30 18:12:13;;;;;;;7.78;5.38;;;;;;;17.14;64.84;100851.69;8603350;34;20193;-71
2021/08/30 18:17:16;;;;;;;8.02;6.32;;;;;;;16.96;65.41;100863.38;8602322;34;20276;-72
2021/08/30 18:22:21;;;;;;;7.55;6.30;;;;;;;16.84;65.91;100861.03;8601827;34;20471;-71
2021/08/30 18:27:24;;;;;;;8.52;6.20;;;;;;;16.65;66.81;100872.88;8602981;34;20161;-72
2021/08/30 18:32:27;;;;;;;9.38;6.82;;;;;;;16.41;67.30;100882.44;8602969;34;20327;-71
2021/08/30 18:37:31;;;;;;;9.38;6.90;;;;;;;16.19;68.29;100891.78;8600342;34;20682;-71
2021/08/30 18:42:35;;;;;;;9.27;6.78;;;;;;;16.08;68.49;100900.94;8600563;34;20180;-70
2021/08/30 18:47:38;;;;;;;10.45;6.97;;;;;;;15.97;69.07;100909.25;8600269;34;20187;-71
2021/08/30 18:52:42;;;;;;;8.48;6.72;;;;;;;15.80;69.96;100913.59;8600506;34;20182;-71
2021/08/30 18:57:46;;;;;;;9.80;6.68;;;;;;;15.63;70.36;100922.44;8600639;34;20224;-70
2021/08/30 19:02:49;;;;;;;11.02;6.93;;;;;;;15.67;70.71;100929.28;8600614;34;20235;-71
2021/08/30 19:07:54;;;;;;;9.73;6.93;;;;;;;15.73;70.39;100925.97;8600165;34;20185;-71
2021/08/30 19:12:57;;;;;;;9.27;7.07;;;;;;;15.78;70.51;100939.94;8599861;34;20189;-71
2021/08/30 19:18:00;;;;;;;8.98;5.95;;;;;;;15.70;70.79;100937.97;8604848;34;20134;-70
2021/08/30 19:23:05;;;;;;;9.43;6.80;;;;;;;15.57;70.83;100937.41;8605222;34;20639;-71
2021/08/30 19:28:08;;;;;;;9.13;7.15;;;;;;;15.54;71.19;100945.81;8604885;34;20192;-71
2021/08/30 19:33:12;;;;;;;10.32;7.28;;;;;;;15.57;71.43;100945.53;8605370;34;20771;-71
2021/08/30 19:38:27;;;;;;;8.65;6.57;;;;;;;15.54;71.49;100950.38;8604732;34;20283;-71
2021/08/30 19:43:30;;;;;;;8.45;6.80;;;;;;;15.53;71.40;100945.97;8607323;34;20220;-72
2021/08/30 19:48:33;;;;;;;9.38;7.38;;;;;;;15.49;71.67;100950.78;8606510;34;20292;-71
2021/08/30 19:53:37;;;;;;;10.27;6.95;;;;;;;15.41;71.54;100951.53;8605192;34;20733;-73
2021/08/30 19:58:41;;;;;;;9.40;6.72;;;;;;;15.26;72.17;100959.16;8604471;34;20209;-71
2021/08/30 20:03:46;;;;;;;9.57;6.88;;;;;;;15.14;72.44;100956.72;8605285;34;21020;-70
2021/08/30 20:08:50;;;;;;;8.68;6.32;;;;;;;15.06;73.14;100960.16;8604925;34;20657;-71
2021/08/30 20:13:53;;;;;;;8.60;7.00;;;;;;;15.09;73.29;100959.88;8604660;34;20137;-71
2021/08/30 20:18:56;;;;;;;9.00;6.82;;;;;;;14.90;74.44;100957.13;8604007;34;20788;-71
2021/08/30 20:24:01;;;;;;;8.48;7.00;;;;;;;14.88;74.88;100969.94;8603789;34;20177;-71
2021/08/30 20:29:04;;;;;;;11.77;7.63;;;;;;;14.89;75.34;100968.91;8603746;34;20181;-71
2021/08/30 20:34:07;;;;;;;11.45;7.45;;;;;;;14.87;75.46;100968.22;8603067;34;20227;-71
2021/08/30 20:39:11;;;;;;;9.60;6.93;;;;;;;14.84;75.74;100980.16;8603711;34;20198;-71
2021/08/30 20:44:14;;;;;;;11.98;7.55;;;;;;;14.98;75.12;100976.22;8603239;34;20148;-71
2021/08/30 20:49:17;;;;;;;12.07;6.95;;;;;;;14.96;75.36;100972.78;8603786;34;20184;-71
2021/08/30 20:54:22;;;;;;;11.65;7.45;;;;;;;14.72;75.71;100974.00;8602946;34;20162;-71
2021/08/30 20:59:25;;;;;;;9.38;7.57;;;;;;;14.81;76.06;100977.75;8603281;34;20677;-70
2021/08/30 21:04:28;;;;;;;9.10;7.18;;;;;;;14.77;75.28;100971.72;8602835;34;21381;-70
2021/08/30 21:09:32;;;;;;;10.48;7.35;;;;;;;14.89;75.35;100977.91;8603885;34;20189;-71
2021/08/30 21:14:35;;;;;;;11.13;7.55;;;;;;;14.94;74.80;100969.38;8603034;34;20193;-71
2021/08/30 21:19:38;;;;;;;10.77;7.28;;;;;;;15.06;74.28;100979.09;8601081;34;20360;-71
2021/08/30 21:24:43;;;;;;;11.57;8.02;;;;;;;14.99;74.23;100973.34;8601579;34;20193;-71
2021/08/30 21:29:46;;;;;;;12.00;7.70;;;;;;;14.94;74.99;100983.72;8601846;34;20240;-71
2021/08/30 21:34:49;;;;;;;12.13;7.35;;;;;;;14.78;75.59;100980.69;8601849;34;20161;-71
2021/08/30 21:39:54;;;;;;;10.02;7.13;;;;;;;14.58;76.53;100987.88;8601799;34;20149;-71
2021/08/30 21:44:57;;;;;;;10.48;7.25;;;;;;;14.47;77.40;100990.69;8604352;34;20250;-71
2021/08/30 21:50:00;;;;;;;10.80;8.27;;;;;;;14.68;76.99;100987.94;8602345;34;20188;-71
2021/08/30 21:55:06;;;;;;;11.00;7.70;;;;;;;14.65;76.60;100983.66;8601393;34;20239;-71
2021/08/30 22:00:11;;;;;;;11.52;8.48;;;;;;;14.77;76.46;100989.81;8601327;34;20745;-71
2021/08/30 22:05:15;;;;;;;11.60;8.57;;;;;;;14.87;76.02;100985.31;8600323;34;20200;-71
2021/08/30 22:10:19;;;;;;;11.00;8.55;;;;;;;14.70;76.28;100992.22;8599823;34;20863;-71
2021/08/30 22:15:23;;;;;;;12.43;8.45;;;;;;;14.60;76.79;100983.22;8600891;34;20453;-71
2021/08/30 22:20:26;;;;;;;13.50;8.70;;;;;;;14.46;77.21;100989.84;8600145;34;20204;-71
2021/08/30 22:25:30;;;;;;;12.25;8.85;;;;;;;14.46;77.14;100994.41;8600427;34;20185;-71
2021/08/30 22:30:34;;;;;;;15.02;9.48;;;;;;;14.43;77.75;100997.38;8600650;34;20188;-71
2021/08/30 22:35:37;;;;;;;13.30;9.05;;;;;;;14.40;77.64;100997.63;8599991;34;20653;-70
2021/08/30 22:40:41;;;;;;;14.30;9.60;;;;;;;14.40;77.56;101000.31;8600029;34;20188;-71
2021/08/30 22:45:44;;;;;;;12.07;9.15;;;;;;;14.36;77.66;100989.75;8600440;34;21130;-71
2021/08/30 22:50:47;;;;;;;13.45;8.60;;;;;;;14.33;77.98;100987.31;8601022;34;20549;-70
2021/08/30 22:55:52;;;;;;;13.73;8.82;;;;;;;13.90;79.32;100995.56;8598536;34;20198;-71
2021/08/30 23:00:55;;;;;;;16.55;9.32;;;;;;;13.87;79.79;101006.63;8598414;34;20667;-71
2021/08/30 23:05:58;;;;;;;13.43;9.48;;;;;;;13.83;79.96;101006.06;8598183;34;20422;-70
2021/08/30 23:11:02;;;;;;;11.73;9.32;;;;;;;13.84;79.92;101010.44;8598629;34;20462;-71
2021/08/30 23:16:06;;;;;;;13.52;9.73;;;;;;;14.03;79.16;101014.28;8598477;34;20678;-70